Time;durP1;ratioP1;P1;durP2;ratioP2;P2;SDS_P1;SDS_P2;PMS_P1;PMS_P2;Temp;Humidity;BMP_temperature;BMP_pressure;BME280_temperature;BME280_humidity;BME280_pressure;Samples;Min_cycle;Max_cycle;Signal;HPM_P1;HPM_P2
2022/03/06 00:02:12;;;;;;;16.30;12.00;;;2.10;99.90;;;;;;5133548;28;20047;-73
2022/03/06 00:04:39;;;;;;;14.43;12.23;;;2.10;99.90;;;;;;5136028;27;20068;-73
2022/03/06 00:07:05;;;;;;;16.90;11.95;;;2.20;99.90;;;;;;5119558;27;20126;-73
2022/03/06 00:09:31;;;;;;;15.47;11.37;;;2.10;99.90;;;;;;5137704;27;20545;-73
2022/03/06 00:11:57;;;;;;;14.80;10.97;;;2.20;99.90;;;;;;5137493;27;20110;-74
2022/03/06 00:14:23;;;;;;;13.20;10.97;;;2.30;99.90;;;;;;5137884;27;20127;-73
2022/03/06 00:16:51;;;;;;;16.23;11.70;;;2.30;99.90;;;;;;5137759;27;20292;-73
2022/03/06 00:19:18;;;;;;;19.58;11.20;;;2.30;99.90;;;;;;5118793;27;20058;-73
2022/03/06 00:21:44;;;;;;;15.10;9.98;;;2.30;99.90;;;;;;5119809;27;20083;-74
2022/03/06 00:24:10;;;;;;;15.10;10.50;;;2.30;99.90;;;;;;5118877;27;20096;-73
2022/03/06 00:26:36;;;;;;;14.43;10.00;;;2.40;99.90;;;;;;5119398;27;20043;-73
2022/03/06 00:29:03;;;;;;;16.60;10.82;;;2.40;99.90;;;;;;5137137;27;20043;-73
2022/03/06 00:31:29;;;;;;;16.67;12.27;;;2.50;99.90;;;;;;5137378;27;20043;-73
2022/03/06 00:33:54;;;;;;;18.08;12.00;;;2.50;99.90;;;;;;5119262;27;20047;-73
2022/03/06 00:36:21;;;;;;;15.33;10.40;;;2.40;99.90;;;;;;5118406;27;20050;-73
2022/03/06 00:38:46;;;;;;;14.98;10.73;;;2.50;99.90;;;;;;5137234;27;20043;-73
2022/03/06 00:41:13;;;;;;;16.37;10.67;;;2.50;99.90;;;;;;5118624;27;20043;-73
2022/03/06 00:43:39;;;;;;;13.27;10.73;;;2.50;99.90;;;;;;5119262;27;20050;-73
2022/03/06 00:46:05;;;;;;;17.27;11.50;;;2.50;99.90;;;;;;5136777;27;20039;-73
2022/03/06 00:48:31;;;;;;;15.37;10.13;;;2.40;99.90;;;;;;5118926;27;20067;-73
2022/03/06 00:50:57;;;;;;;14.30;10.63;;;2.50;99.90;;;;;;5118938;27;20050;-73
2022/03/06 00:53:23;;;;;;;15.10;9.70;;;2.50;99.90;;;;;;5118490;27;20051;-73
2022/03/06 00:55:49;;;;;;;14.27;10.67;;;2.50;99.90;;;;;;5118711;27;20479;-73
2022/03/06 00:58:15;;;;;;;13.02;9.70;;;2.50;99.90;;;;;;5118397;27;20043;-73
2022/03/06 01:00:44;;;;;;;14.00;9.50;;;2.50;99.90;;;;;;5118665;27;20070;-73
2022/03/06 01:03:11;;;;;;;14.73;10.23;;;2.60;99.90;;;;;;5136540;27;20039;-73
2022/03/06 01:05:37;;;;;;;13.52;9.63;;;2.50;99.90;;;;;;5118456;27;20074;-73
2022/03/06 01:08:04;;;;;;;16.52;10.43;;;2.50;99.90;;;;;;5118281;27;20077;-73
2022/03/06 01:10:31;;;;;;;16.90;10.27;;;2.60;99.90;;;;;;5136705;27;20139;-73
2022/03/06 01:12:58;;;;;;;11.48;8.23;;;2.50;99.90;;;;;;5118562;27;20149;-73
2022/03/06 01:15:23;;;;;;;14.40;8.90;;;2.60;99.90;;;;;;5117142;28;20160;-73
2022/03/06 01:17:49;;;;;;;11.63;8.60;;;2.60;99.90;;;;;;5136383;27;20047;-73
2022/03/06 01:20:17;;;;;;;12.07;8.87;;;2.60;99.90;;;;;;5136299;27;20055;-73
2022/03/06 01:22:44;;;;;;;15.52;9.73;;;2.60;99.90;;;;;;5136552;27;20051;-73
2022/03/06 01:25:10;;;;;;;13.15;9.13;;;2.60;99.90;;;;;;5136110;27;20054;-73
2022/03/06 01:27:36;;;;;;;13.40;9.73;;;2.60;99.90;;;;;;5136049;27;20042;-73
2022/03/06 01:30:05;;;;;;;11.77;9.00;;;2.60;99.90;;;;;;5136100;27;20043;-80
2022/03/06 01:32:32;;;;;;;13.50;9.40;;;2.60;99.90;;;;;;5118446;27;20494;-73
2022/03/06 01:34:58;;;;;;;15.52;9.05;;;2.70;99.90;;;;;;5136217;27;20043;-73
2022/03/06 01:37:24;;;;;;;14.45;9.05;;;2.70;99.90;;;;;;5135857;27;20046;-73
2022/03/06 01:39:50;;;;;;;13.60;8.93;;;2.70;99.90;;;;;;5136096;27;20441;-73
2022/03/06 01:42:16;;;;;;;13.77;8.95;;;2.70;99.90;;;;;;5117629;27;20047;-73
2022/03/06 01:44:52;;;;;;;13.15;9.18;;;2.60;99.90;;;;;;5100913;27;20448;-73
2022/03/06 01:47:37;;;;;;;11.50;8.68;;;2.70;99.90;;;;;;5117678;27;20150;-73
2022/03/06 01:50:04;;;;;;;12.02;8.82;;;2.70;99.90;;;;;;5135842;27;20039;-73
2022/03/06 01:52:30;;;;;;;12.20;8.65;;;2.70;99.90;;;;;;5135834;27;20050;-73
2022/03/06 01:54:56;;;;;;;13.47;9.13;;;2.70;99.90;;;;;;5135392;27;20070;-73
2022/03/06 01:57:24;;;;;;;11.77;8.40;;;2.70;99.90;;;;;;5135434;27;20047;-73
2022/03/06 01:59:49;;;;;;;18.52;9.02;;;2.70;99.90;;;;;;5117781;27;20054;-73
2022/03/06 02:02:15;;;;;;;11.77;8.37;;;2.70;99.90;;;;;;5117079;27;20046;-73
2022/03/06 02:04:41;;;;;;;14.63;8.23;;;2.70;99.90;;;;;;5135513;27;20453;-73
2022/03/06 02:07:07;;;;;;;11.33;8.43;;;2.70;99.90;;;;;;5135274;27;20039;-73
2022/03/06 02:09:33;;;;;;;9.83;7.67;;;2.70;99.90;;;;;;5135439;27;20043;-73
2022/03/06 02:14:43;;;;;;;10.55;7.63;;;2.60;99.90;;;;;;5135458;27;20104;-73
2022/03/06 02:17:08;;;;;;;12.37;7.60;;;2.70;99.90;;;;;;5134952;27;20035;-74
2022/03/06 02:20:11;;;;;;;10.57;7.60;;;2.80;99.90;;;;;;5135250;27;20055;-73
2022/03/06 02:22:42;;;;;;;12.48;7.72;;;2.80;99.90;;;;;;5135276;27;20043;-73
2022/03/06 02:25:10;;;;;;;12.00;7.30;;;2.70;99.90;;;;;;5134763;27;20039;-77
2022/03/06 02:27:37;;;;;;;10.68;7.63;;;2.70;99.90;;;;;;5134999;27;20043;-73
2022/03/06 02:30:11;;;;;;;12.82;7.18;;;2.70;99.90;;;;;;5135078;27;20046;-73
2022/03/06 02:32:39;;;;;;;11.95;7.97;;;2.70;99.90;;;;;;5117357;27;20047;-73
2022/03/06 02:35:06;;;;;;;10.70;6.65;;;2.70;99.90;;;;;;5134966;27;20437;-73
2022/03/06 02:37:32;;;;;;;14.95;6.90;;;2.70;99.90;;;;;;5134677;27;20054;-73
2022/03/06 02:40:00;;;;;;;10.73;7.30;;;2.80;99.90;;;;;;5134923;27;20039;-73
2022/03/06 02:42:28;;;;;;;9.27;6.25;;;2.80;99.90;;;;;;5116402;27;20095;-73
2022/03/06 02:44:56;;;;;;;11.07;7.10;;;2.80;99.90;;;;;;5116698;27;20050;-73
2022/03/06 02:47:22;;;;;;;11.57;6.55;;;2.80;99.90;;;;;;5099525;27;20047;-73
2022/03/06 02:49:48;;;;;;;9.47;5.37;;;2.80;99.90;;;;;;5082474;27;20050;-73
2022/03/06 02:52:15;;;;;;;8.20;5.60;;;2.90;99.90;;;;;;5116140;27;20475;-73
2022/03/06 02:54:41;;;;;;;9.88;6.07;;;2.90;99.90;;;;;;5134878;27;20047;-73
2022/03/06 02:57:07;;;;;;;11.07;5.87;;;2.90;99.90;;;;;;5116425;27;20039;-73
2022/03/06 02:59:34;;;;;;;8.82;5.28;;;2.80;99.90;;;;;;5134246;27;20395;-73
2022/03/06 03:02:00;;;;;;;10.05;5.40;;;2.90;99.90;;;;;;5116086;27;20431;-73
2022/03/06 03:04:25;;;;;;;10.33;5.07;;;2.90;99.90;;;;;;5134173;27;20134;-73
2022/03/06 03:06:52;;;;;;;8.10;4.87;;;2.90;99.90;;;;;;5115829;27;20285;-73
2022/03/06 03:09:20;;;;;;;8.90;5.30;;;2.90;99.90;;;;;;5134051;27;20043;-73
2022/03/06 03:11:52;;;;;;;10.48;4.93;;;2.90;99.90;;;;;;5134422;27;20487;-73
2022/03/06 03:14:18;;;;;;;8.05;4.97;;;2.90;99.90;;;;;;5115929;27;20054;-73
2022/03/06 03:16:44;;;;;;;9.27;4.65;;;2.90;99.90;;;;;;5098952;27;20139;-73
2022/03/06 03:19:10;;;;;;;8.80;5.27;;;2.80;99.90;;;;;;5115929;27;20134;-73
2022/03/06 03:21:36;;;;;;;9.50;4.70;;;2.90;99.90;;;;;;5133872;27;20047;-73
2022/03/06 03:24:02;;;;;;;9.27;4.88;;;2.90;99.90;;;;;;5134218;27;20035;-73
2022/03/06 03:26:28;;;;;;;9.50;4.28;;;3.00;99.90;;;;;;5133915;27;20455;-73
2022/03/06 03:28:54;;;;;;;7.07;4.10;;;3.10;99.90;;;;;;5134056;27;20103;-73
2022/03/06 03:31:20;;;;;;;6.87;4.30;;;3.00;99.90;;;;;;5115779;28;20800;-73
2022/03/06 03:33:46;;;;;;;12.57;5.10;;;3.00;99.90;;;;;;5115997;27;20433;-73
2022/03/06 03:36:13;;;;;;;8.47;4.40;;;3.00;99.90;;;;;;5115731;28;20039;-73
2022/03/06 03:38:40;;;;;;;8.10;4.85;;;3.00;99.90;;;;;;5133132;27;20049;-73
2022/03/06 03:41:07;;;;;;;10.07;5.22;;;3.00;99.90;;;;;;5133919;28;20058;-73
2022/03/06 03:43:33;;;;;;;10.25;4.55;;;3.00;99.90;;;;;;5133731;28;20406;-73
2022/03/06 03:45:58;;;;;;;9.53;4.93;;;3.00;99.90;;;;;;5115958;28;20043;-73
2022/03/06 03:48:28;;;;;;;8.87;4.60;;;2.90;99.90;;;;;;5115313;28;20039;-73
2022/03/06 03:50:55;;;;;;;8.40;4.68;;;2.90;99.90;;;;;;5133862;28;20075;-73
2022/03/06 03:53:22;;;;;;;9.88;4.25;;;3.00;99.90;;;;;;5115126;28;20364;-73
2022/03/06 03:55:48;;;;;;;9.98;4.85;;;2.90;99.90;;;;;;5098490;28;20477;-73
2022/03/06 03:58:14;;;;;;;10.00;5.15;;;2.90;99.90;;;;;;5133639;27;20465;-73
2022/03/06 04:00:40;;;;;;;10.90;5.50;;;3.00;99.90;;;;;;5133299;28;20081;-73
2022/03/06 04:03:06;;;;;;;8.63;5.15;;;3.00;99.90;;;;;;5115623;28;20491;-72
2022/03/06 04:05:32;;;;;;;12.90;5.00;;;2.90;99.90;;;;;;5133571;28;20047;-73
2022/03/06 04:07:57;;;;;;;9.73;4.87;;;2.90;99.90;;;;;;5115489;28;20421;-73
2022/03/06 04:10:23;;;;;;;10.77;4.77;;;2.90;99.90;;;;;;5133321;28;20130;-73
2022/03/06 04:12:49;;;;;;;10.70;5.33;;;2.80;99.90;;;;;;5115393;28;20077;-72
2022/03/06 04:15:14;;;;;;;7.23;4.47;;;2.90;99.90;;;;;;5133484;28;20047;-73
2022/03/06 04:17:40;;;;;;;9.17;5.20;;;2.80;99.90;;;;;;5133086;28;20058;-73
2022/03/06 04:20:07;;;;;;;8.73;5.07;;;2.80;99.90;;;;;;5133654;28;20090;-72
2022/03/06 04:22:33;;;;;;;10.02;4.38;;;2.70;99.90;;;;;;5133264;27;20069;-73
2022/03/06 04:24:59;;;;;;;9.73;5.30;;;2.60;99.90;;;;;;5133228;28;20483;-73
2022/03/06 04:27:24;;;;;;;9.87;5.17;;;2.70;99.90;;;;;;5098186;28;20058;-73
2022/03/06 04:29:50;;;;;;;9.27;5.00;;;2.60;99.90;;;;;;5098499;28;20157;-73
2022/03/06 04:32:16;;;;;;;10.10;4.47;;;2.50;99.90;;;;;;5115419;28;20058;-73
2022/03/06 04:34:41;;;;;;;8.97;4.83;;;2.50;99.90;;;;;;5098293;28;20051;-73
2022/03/06 04:37:07;;;;;;;8.93;4.63;;;2.50;99.90;;;;;;5098173;28;20047;-73
2022/03/06 04:39:33;;;;;;;9.60;5.43;;;2.40;99.90;;;;;;5133086;27;20510;-73
2022/03/06 04:41:59;;;;;;;10.10;5.03;;;2.50;99.90;;;;;;5133486;28;20048;-73
2022/03/06 04:44:24;;;;;;;10.80;4.70;;;2.40;99.90;;;;;;5133123;27;20440;-73
2022/03/06 04:46:50;;;;;;;10.53;5.30;;;2.40;99.90;;;;;;5133057;28;20043;-73
2022/03/06 04:49:16;;;;;;;13.43;5.47;;;2.40;99.90;;;;;;5133025;27;20100;-73
2022/03/06 04:51:42;;;;;;;9.27;5.10;;;2.30;99.90;;;;;;5116685;27;20043;-73
2022/03/06 04:54:08;;;;;;;14.00;5.80;;;2.40;99.90;;;;;;5118664;27;20062;-73
2022/03/06 04:56:35;;;;;;;9.97;5.87;;;2.30;99.90;;;;;;5136417;27;20043;-73
2022/03/06 04:59:01;;;;;;;8.63;5.38;;;2.20;99.90;;;;;;5136698;27;20284;-73
2022/03/06 05:01:27;;;;;;;11.80;6.30;;;2.30;99.90;;;;;;5136746;27;20050;-73
2022/03/06 05:03:52;;;;;;;12.15;6.45;;;2.20;99.90;;;;;;5118711;27;20039;-73
2022/03/06 05:06:18;;;;;;;10.40;6.13;;;2.20;99.90;;;;;;5101706;27;20070;-73
2022/03/06 05:08:44;;;;;;;9.83;6.07;;;2.20;99.90;;;;;;5117738;27;20077;-73
2022/03/06 05:11:10;;;;;;;9.60;6.10;;;2.20;99.90;;;;;;5136348;27;20054;-73
2022/03/06 05:13:36;;;;;;;9.07;5.32;;;2.10;99.90;;;;;;5136346;27;20051;-73
2022/03/06 05:16:02;;;;;;;11.93;6.60;;;2.10;99.90;;;;;;5136436;27;20061;-73
2022/03/06 05:18:28;;;;;;;10.35;6.10;;;2.00;99.90;;;;;;5117599;27;20055;-73
2022/03/06 05:20:54;;;;;;;11.37;6.37;;;2.00;99.90;;;;;;5136334;27;20054;-73
2022/03/06 05:23:20;;;;;;;9.87;5.70;;;2.00;99.90;;;;;;5101261;27;20054;-73
2022/03/06 05:25:46;;;;;;;12.17;5.60;;;1.90;99.90;;;;;;5117622;27;20047;-73
2022/03/06 05:28:12;;;;;;;10.80;5.45;;;1.90;99.90;;;;;;5117957;27;20051;-73
2022/03/06 05:30:38;;;;;;;10.77;5.50;;;1.90;99.90;;;;;;5100982;27;20046;-73
2022/03/06 05:33:04;;;;;;;10.17;5.53;;;1.80;99.90;;;;;;5118180;27;20043;-73
2022/03/06 05:35:30;;;;;;;11.00;5.77;;;1.80;99.90;;;;;;5135813;27;20079;-73
2022/03/06 05:37:56;;;;;;;11.48;5.72;;;1.80;99.90;;;;;;5136135;27;20054;-73
2022/03/06 05:40:22;;;;;;;11.35;5.97;;;1.80;99.90;;;;;;5101088;27;20463;-73
2022/03/06 05:42:48;;;;;;;9.13;5.63;;;1.70;99.90;;;;;;5135802;27;20047;-73
2022/03/06 05:45:13;;;;;;;12.70;5.93;;;1.70;99.90;;;;;;5117942;27;20717;-73
2022/03/06 05:47:39;;;;;;;9.97;5.43;;;1.70;99.90;;;;;;5135653;27;20047;-73
2022/03/06 05:50:07;;;;;;;11.83;5.83;;;1.60;99.90;;;;;;5117869;27;20050;-72
2022/03/06 05:52:33;;;;;;;11.23;5.55;;;1.60;99.90;;;;;;5117469;27;20046;-73
2022/03/06 05:54:59;;;;;;;10.63;5.75;;;1.50;99.90;;;;;;5135528;27;20547;-73
2022/03/06 05:57:25;;;;;;;10.60;5.90;;;1.50;99.90;;;;;;5117343;27;20027;-71
2022/03/06 05:59:51;;;;;;;9.95;5.85;;;1.50;99.90;;;;;;5117313;27;20047;-72
2022/03/06 06:02:19;;;;;;;10.52;5.70;;;1.50;99.90;;;;;;5135417;27;20055;-72
2022/03/06 06:04:45;;;;;;;10.77;5.53;;;1.40;99.90;;;;;;5135335;27;20047;-72
2022/03/06 06:07:11;;;;;;;9.67;5.10;;;1.30;99.90;;;;;;5117424;27;20047;-72
2022/03/06 06:09:37;;;;;;;9.90;5.67;;;1.40;99.90;;;;;;5135236;27;20114;-72
2022/03/06 06:12:03;;;;;;;12.32;5.65;;;1.40;99.90;;;;;;5117178;27;20277;-72
2022/03/06 06:14:29;;;;;;;15.25;5.68;;;1.40;99.90;;;;;;5117071;27;20414;-72
2022/03/06 06:16:55;;;;;;;11.50;5.60;;;1.40;99.90;;;;;;5116705;27;20039;-72
2022/03/06 06:19:21;;;;;;;12.90;5.70;;;1.40;99.90;;;;;;5113311;28;20456;-72
2022/03/06 06:21:46;;;;;;;8.63;5.07;;;1.40;99.90;;;;;;5114439;28;20051;-72
2022/03/06 06:24:13;;;;;;;9.03;5.30;;;1.50;99.90;;;;;;5114885;28;20070;-72
2022/03/06 06:26:43;;;;;;;12.10;5.70;;;1.50;99.90;;;;;;5113702;28;20480;-73
2022/03/06 06:29:09;;;;;;;11.82;5.72;;;1.50;99.90;;;;;;5114620;28;20046;-72
2022/03/06 06:31:35;;;;;;;9.30;5.53;;;1.50;99.90;;;;;;5114365;27;20082;-72
2022/03/06 06:34:01;;;;;;;10.00;5.80;;;1.60;99.90;;;;;;5114496;28;20124;-72
2022/03/06 06:36:27;;;;;;;11.03;5.57;;;1.60;99.90;;;;;;5113220;28;20476;-72
2022/03/06 06:38:53;;;;;;;11.05;6.00;;;1.60;99.90;;;;;;5113137;28;20039;-72
2022/03/06 06:41:19;;;;;;;9.68;5.28;;;1.70;99.90;;;;;;5114409;28;20040;-72
2022/03/06 06:43:45;;;;;;;8.90;4.80;;;1.70;99.90;;;;;;5114318;28;20481;-72
2022/03/06 06:46:11;;;;;;;12.30;5.67;;;1.70;99.90;;;;;;5096665;28;20340;-72
2022/03/06 06:48:37;;;;;;;12.38;4.72;;;1.70;99.90;;;;;;5113930;28;20436;-72
2022/03/06 06:51:04;;;;;;;8.18;4.38;;;1.80;99.90;;;;;;5114172;28;20112;-73
2022/03/06 06:53:30;;;;;;;9.50;5.20;;;1.80;99.90;;;;;;5114262;28;20466;-72
2022/03/06 06:55:55;;;;;;;8.05;4.22;;;1.80;99.90;;;;;;5113775;28;20051;-73
2022/03/06 06:58:21;;;;;;;8.67;4.10;;;1.90;99.90;;;;;;5113005;28;20126;-72
2022/03/06 07:00:48;;;;;;;7.90;3.90;;;2.00;99.90;;;;;;5112508;28;20398;-72
2022/03/06 07:03:14;;;;;;;7.93;3.42;;;2.00;99.90;;;;;;5112998;28;20495;-72
2022/03/06 07:05:39;;;;;;;6.75;2.55;;;2.10;99.90;;;;;;5112446;28;20040;-72
2022/03/06 07:08:05;;;;;;;4.37;2.37;;;2.20;99.90;;;;;;5096369;28;20547;-72
2022/03/06 07:10:31;;;;;;;7.37;2.63;;;2.40;99.90;;;;;;5112678;28;20043;-72
2022/03/06 07:12:58;;;;;;;6.73;2.50;;;2.40;99.90;;;;;;5113131;28;20040;-72
2022/03/06 07:15:32;;;;;;;4.65;2.17;;;2.50;99.90;;;;;;5113394;28;20126;-72
2022/03/06 07:18:00;;;;;;;7.85;2.85;;;2.50;99.90;;;;;;5113489;27;20075;-73
2022/03/06 07:20:27;;;;;;;10.63;3.05;;;2.50;99.90;;;;;;5115825;27;20062;-72
2022/03/06 07:22:54;;;;;;;7.75;3.00;;;2.60;99.90;;;;;;5115883;28;20073;-72
2022/03/06 07:25:20;;;;;;;6.80;2.42;;;2.60;99.90;;;;;;5134208;27;20091;-73
2022/03/06 07:27:46;;;;;;;6.55;2.33;;;2.70;99.90;;;;;;5115576;27;20099;-73
2022/03/06 07:30:12;;;;;;;5.50;2.67;;;2.70;99.90;;;;;;5133965;27;20043;-73
2022/03/06 07:32:56;;;;;;;7.13;1.90;;;2.70;99.90;;;;;;5115937;27;20086;-79
2022/03/06 07:35:22;;;;;;;6.03;2.05;;;2.60;99.90;;;;;;5116274;27;20043;-73
2022/03/06 07:37:48;;;;;;;4.82;1.58;;;2.70;99.90;;;;;;5133842;28;20122;-73
2022/03/06 07:40:17;;;;;;;6.50;2.33;;;2.70;99.90;;;;;;5115610;28;20177;-72
2022/03/06 07:42:43;;;;;;;7.03;2.05;;;2.70;99.90;;;;;;5133792;28;20379;-73
2022/03/06 07:45:09;;;;;;;5.10;2.03;;;2.80;98.00;;;;;;5099298;28;20046;-72
2022/03/06 07:47:35;;;;;;;4.15;1.80;;;2.90;94.60;;;;;;5115893;28;20100;-72
2022/03/06 07:50:01;;;;;;;5.47;1.90;;;3.00;96.00;;;;;;5115549;28;20054;-71
2022/03/06 07:52:27;;;;;;;4.57;1.60;;;3.10;95.60;;;;;;5133931;28;20083;-71
2022/03/06 07:54:52;;;;;;;4.10;1.73;;;3.10;94.40;;;;;;5133599;28;20125;-72
2022/03/06 07:57:18;;;;;;;5.00;2.00;;;3.20;94.50;;;;;;5133450;28;20047;-72
2022/03/06 07:59:44;;;;;;;6.00;1.70;;;3.30;93.40;;;;;;5133521;28;20127;-72
2022/03/06 08:02:10;;;;;;;6.53;2.27;;;3.40;92.80;;;;;;5133902;28;20047;-70
2022/03/06 08:04:35;;;;;;;4.27;1.53;;;3.50;92.80;;;;;;5115155;28;20036;-72
2022/03/06 08:07:01;;;;;;;5.50;1.50;;;3.60;90.90;;;;;;5133492;27;20110;-72
2022/03/06 08:09:27;;;;;;;4.23;1.73;;;3.70;90.20;;;;;;5135119;28;20075;-71
2022/03/06 08:11:53;;;;;;;5.03;1.70;;;3.70;89.70;;;;;;5133531;28;20123;-73
2022/03/06 08:14:19;;;;;;;5.18;1.88;;;3.80;89.40;;;;;;5133733;28;20436;-73
2022/03/06 08:16:45;;;;;;;7.27;2.10;;;3.80;87.80;;;;;;5114924;28;20102;-73
2022/03/06 08:19:11;;;;;;;5.83;2.20;;;3.90;87.60;;;;;;5115448;28;20122;-73
2022/03/06 08:21:36;;;;;;;4.47;1.87;;;3.90;84.60;;;;;;5133596;28;20047;-73
2022/03/06 08:24:02;;;;;;;5.07;2.47;;;3.90;84.40;;;;;;5114965;28;20043;-73
2022/03/06 08:26:28;;;;;;;7.25;2.83;;;3.90;83.30;;;;;;5136973;27;20047;-71
2022/03/06 08:28:54;;;;;;;5.47;2.10;;;4.00;81.60;;;;;;5136941;27;20039;-71
2022/03/06 08:31:20;;;;;;;5.50;2.30;;;4.00;80.80;;;;;;5102616;27;20054;-72
2022/03/06 08:33:46;;;;;;;4.88;2.28;;;4.00;80.30;;;;;;5137176;27;20051;-72
2022/03/06 08:36:12;;;;;;;6.28;2.05;;;4.10;79.80;;;;;;5137271;27;20126;-71
2022/03/06 08:38:39;;;;;;;9.40;3.70;;;4.10;79.10;;;;;;5119283;27;20212;-71
2022/03/06 08:41:04;;;;;;;4.65;2.03;;;4.10;78.00;;;;;;5136971;27;20069;-72
2022/03/06 08:43:30;;;;;;;6.53;1.90;;;4.10;79.70;;;;;;5119179;27;20541;-72
2022/03/06 08:45:56;;;;;;;4.87;2.07;;;4.20;79.10;;;;;;5118618;27;20470;-72
2022/03/06 08:48:22;;;;;;;6.33;1.97;;;4.10;78.90;;;;;;5101867;27;20540;-71
2022/03/06 08:50:51;;;;;;;7.03;2.10;;;4.10;79.30;;;;;;5136877;27;20082;-73
2022/03/06 08:53:17;;;;;;;7.85;2.65;;;4.20;77.00;;;;;;5119243;27;20051;-71
2022/03/06 08:55:43;;;;;;;5.22;2.03;;;4.20;78.20;;;;;;5101940;27;20047;-72
2022/03/06 08:58:09;;;;;;;5.10;2.10;;;4.20;76.90;;;;;;5136575;27;20124;-72
2022/03/06 09:00:35;;;;;;;4.40;1.90;;;4.30;75.50;;;;;;5118515;27;20043;-71
2022/03/06 09:03:00;;;;;;;5.80;2.50;;;4.20;76.20;;;;;;5101412;27;20133;-72
2022/03/06 09:05:26;;;;;;;4.07;1.93;;;4.10;75.70;;;;;;5118320;27;20475;-71
2022/03/06 09:07:52;;;;;;;5.07;1.92;;;4.20;76.50;;;;;;5118032;27;20039;-72
2022/03/06 09:10:18;;;;;;;6.87;1.90;;;4.20;75.60;;;;;;5118116;27;20126;-70
2022/03/06 09:12:44;;;;;;;3.85;1.90;;;4.30;75.80;;;;;;5136689;27;20055;-71
2022/03/06 09:15:10;;;;;;;5.03;2.10;;;4.30;74.70;;;;;;5118070;27;20571;-71
2022/03/06 09:17:37;;;;;;;5.35;1.92;;;4.30;74.20;;;;;;5136528;27;20076;-70
2022/03/06 09:20:04;;;;;;;6.07;2.33;;;4.30;74.60;;;;;;5135856;27;20455;-71
2022/03/06 09:22:30;;;;;;;6.07;1.90;;;4.30;73.40;;;;;;5119654;27;20479;-71
2022/03/06 09:24:55;;;;;;;6.63;1.87;;;4.30;73.00;;;;;;5117944;27;20047;-72
2022/03/06 09:27:21;;;;;;;5.87;1.70;;;4.40;73.30;;;;;;5101313;27;20130;-70
2022/03/06 09:29:47;;;;;;;8.53;1.90;;;4.40;74.00;;;;;;5118152;27;20047;-70
2022/03/06 09:32:13;;;;;;;4.90;2.10;;;4.40;74.30;;;;;;5117758;27;20039;-70
2022/03/06 09:34:38;;;;;;;5.47;2.10;;;4.50;74.00;;;;;;5136861;27;20092;-70
2022/03/06 09:37:04;;;;;;;4.80;2.00;;;4.50;74.00;;;;;;5116756;27;20035;-71
2022/03/06 09:39:30;;;;;;;6.10;2.00;;;4.50;73.60;;;;;;5136203;27;20043;-70
2022/03/06 09:41:56;;;;;;;7.03;2.20;;;4.50;73.60;;;;;;5136125;27;20091;-69
2022/03/06 09:44:26;;;;;;;4.07;2.00;;;4.60;73.90;;;;;;5117882;27;20283;-73
2022/03/06 09:46:55;;;;;;;5.60;2.10;;;4.60;73.90;;;;;;5136271;27;20050;-73
2022/03/06 09:49:20;;;;;;;5.95;1.98;;;4.70;75.20;;;;;;5136084;27;20051;-72
2022/03/06 09:51:46;;;;;;;4.43;2.00;;;4.80;74.60;;;;;;5136106;27;20098;-73
2022/03/06 09:54:13;;;;;;;6.33;2.37;;;4.80;74.10;;;;;;5117676;27;20048;-73
2022/03/06 09:56:40;;;;;;;5.38;2.40;;;4.80;72.40;;;;;;5135931;27;20043;-72
2022/03/06 09:59:06;;;;;;;5.57;2.45;;;4.80;73.00;;;;;;5135522;27;20047;-74
2022/03/06 10:01:32;;;;;;;7.32;2.15;;;4.80;72.20;;;;;;5135999;27;20047;-73
2022/03/06 10:03:58;;;;;;;8.10;2.75;;;4.80;72.30;;;;;;5135492;27;20084;-73
2022/03/06 10:06:23;;;;;;;7.27;2.30;;;4.80;71.40;;;;;;5135379;27;20043;-83
2022/03/06 10:09:04;;;;;;;6.03;2.47;;;4.80;71.50;;;;;;5083735;27;20051;-76
2022/03/06 10:11:31;;;;;;;6.30;2.10;;;4.80;71.50;;;;;;5135561;27;20093;-76
2022/03/06 10:13:57;;;;;;;5.80;1.88;;;4.90;71.60;;;;;;5135230;27;20043;-78
2022/03/06 10:16:23;;;;;;;5.83;2.40;;;4.80;71.50;;;;;;5135399;27;20179;-79
2022/03/06 10:18:56;;;;;;;6.32;2.40;;;4.70;71.80;;;;;;5117223;27;20570;-78
2022/03/06 10:21:26;;;;;;;7.55;2.13;;;4.90;71.70;;;;;;5117140;27;20043;-75
2022/03/06 10:24:01;;;;;;;5.10;2.20;;;4.90;71.70;;;;;;5135236;27;20039;-78
2022/03/06 10:26:30;;;;;;;5.32;2.28;;;4.90;73.00;;;;;;5117140;27;20509;-77
2022/03/06 10:29:11;;;;;;;7.28;2.20;;;5.00;71.90;;;;;;5100484;27;20043;-77
2022/03/06 10:31:52;;;;;;;5.65;2.22;;;5.00;72.10;;;;;;5117198;27;20043;-80
2022/03/06 10:34:18;;;;;;;6.03;2.05;;;5.00;72.30;;;;;;5116905;27;20055;-80
2022/03/06 10:36:46;;;;;;;5.43;2.20;;;5.00;72.90;;;;;;5117165;27;20058;-81
2022/03/06 10:39:23;;;;;;;7.30;2.67;;;5.10;73.40;;;;;;5099576;27;20171;-76
2022/03/06 10:41:53;;;;;;;6.45;2.92;;;5.10;72.30;;;;;;5116621;27;20035;-76
2022/03/06 10:44:21;;;;;;;6.50;2.20;;;5.10;73.30;;;;;;5116398;27;20488;-80
2022/03/06 10:47:05;;;;;;;5.75;2.45;;;5.10;72.80;;;;;;5116649;27;20047;-75
2022/03/06 10:49:32;;;;;;;5.70;2.30;;;5.20;73.00;;;;;;5134912;27;20039;-70
2022/03/06 10:52:15;;;;;;;5.60;2.20;;;5.20;74.00;;;;;;5116722;27;20046;-69
2022/03/06 10:54:55;;;;;;;6.32;2.45;;;5.20;73.90;;;;;;5134896;27;20103;-73
2022/03/06 10:57:22;;;;;;;6.75;2.40;;;5.20;73.10;;;;;;5134378;27;20043;-72
2022/03/06 10:59:49;;;;;;;7.40;2.78;;;5.30;73.80;;;;;;5099352;27;20085;-72
2022/03/06 11:02:16;;;;;;;6.03;2.35;;;5.40;73.70;;;;;;5116026;27;20494;-72
2022/03/06 11:04:45;;;;;;;5.53;2.30;;;5.40;74.10;;;;;;5116567;27;20095;-73
2022/03/06 11:07:11;;;;;;;6.20;2.97;;;5.40;74.20;;;;;;5115831;27;20054;-74
2022/03/06 11:09:38;;;;;;;7.97;2.38;;;5.50;73.90;;;;;;5134620;27;20054;-73
2022/03/06 11:12:05;;;;;;;5.88;2.30;;;5.60;73.60;;;;;;5116001;27;20043;-73
2022/03/06 11:14:32;;;;;;;5.82;2.60;;;5.50;73.70;;;;;;5133940;27;20043;-73
2022/03/06 11:16:58;;;;;;;5.43;2.00;;;5.60;74.30;;;;;;5134138;27;20126;-73
2022/03/06 11:19:26;;;;;;;6.45;2.90;;;5.60;73.20;;;;;;5133831;27;20551;-73
2022/03/06 11:22:02;;;;;;;5.00;2.10;;;5.70;72.90;;;;;;5134107;27;20162;-73
2022/03/06 11:24:30;;;;;;;7.40;2.60;;;5.70;73.10;;;;;;5133836;27;20471;-73
2022/03/06 11:27:26;;;;;;;4.90;2.13;;;5.70;74.20;;;;;;5134092;27;20046;-73
2022/03/06 11:30:02;;;;;;;6.53;2.67;;;5.80;74.50;;;;;;5133858;27;20479;-73
2022/03/06 11:32:33;;;;;;;7.20;2.80;;;6.00;73.10;;;;;;5134208;27;20043;-71
2022/03/06 11:35:18;;;;;;;6.57;2.38;;;6.00;73.90;;;;;;5116170;27;20055;-73
2022/03/06 11:37:56;;;;;;;7.78;2.92;;;6.20;73.40;;;;;;5134281;27;20047;-73
2022/03/06 11:40:45;;;;;;;6.60;2.65;;;6.30;72.70;;;;;;5133904;28;20447;-73
2022/03/06 11:43:33;;;;;;;7.55;2.72;;;6.40;72.20;;;;;;5133705;28;20046;-73
2022/03/06 11:45:58;;;;;;;6.25;2.20;;;6.30;71.50;;;;;;5134039;28;20094;-73
2022/03/06 11:48:31;;;;;;;4.80;1.90;;;6.40;71.80;;;;;;5115370;28;20074;-73
2022/03/06 11:51:19;;;;;;;7.38;2.60;;;6.40;71.70;;;;;;5134075;28;20047;-73
2022/03/06 11:53:49;;;;;;;8.60;2.15;;;6.40;72.00;;;;;;5134159;28;20055;-73
2022/03/06 11:56:34;;;;;;;6.22;2.22;;;6.50;71.40;;;;;;5133604;28;20097;-73
2022/03/06 11:59:24;;;;;;;5.30;1.92;;;6.60;71.70;;;;;;5098930;27;20134;-73
2022/03/06 12:01:53;;;;;;;7.57;2.50;;;6.50;71.10;;;;;;5138282;27;20058;-71
2022/03/06 12:04:47;;;;;;;7.57;2.55;;;6.60;72.00;;;;;;5137753;27;20043;-72
2022/03/06 12:07:14;;;;;;;8.10;2.53;;;6.60;73.10;;;;;;5133144;27;20130;-72
2022/03/06 12:09:44;;;;;;;5.40;1.92;;;6.60;72.30;;;;;;5137966;27;20055;-72
2022/03/06 12:12:16;;;;;;;6.75;2.03;;;6.60;73.30;;;;;;5119696;27;20039;-72
2022/03/06 12:15:06;;;;;;;7.28;2.53;;;6.60;73.30;;;;;;5138025;27;20039;-72
2022/03/06 12:17:34;;;;;;;4.55;2.00;;;6.60;72.90;;;;;;5136367;27;20039;-71
2022/03/06 12:20:09;;;;;;;4.75;2.10;;;6.60;72.50;;;;;;5138010;27;20067;-73
2022/03/06 12:22:43;;;;;;;7.60;2.63;;;6.70;72.20;;;;;;5137563;27;20559;-72
2022/03/06 12:25:08;;;;;;;5.95;2.42;;;6.60;72.60;;;;;;5119447;27;20134;-73
2022/03/06 12:27:36;;;;;;;6.97;2.13;;;6.60;73.40;;;;;;5137548;27;20083;-73
2022/03/06 12:30:12;;;;;;;5.35;2.22;;;6.70;73.80;;;;;;5119383;27;20553;-73
2022/03/06 12:32:40;;;;;;;5.57;2.40;;;6.70;73.20;;;;;;5137755;27;20117;-76
2022/03/06 12:35:17;;;;;;;5.28;2.00;;;6.80;73.10;;;;;;5119194;27;20471;-85
2022/03/06 12:37:44;;;;;;;7.63;2.33;;;6.70;72.50;;;;;;5119346;27;20047;-84
2022/03/06 12:40:17;;;;;;;7.97;2.72;;;6.70;73.40;;;;;;5119332;27;20471;-84
2022/03/06 12:42:45;;;;;;;6.40;2.20;;;6.60;72.00;;;;;;5137530;27;20046;-84
2022/03/06 12:45:17;;;;;;;6.15;2.00;;;6.70;72.90;;;;;;5119131;27;20410;-80
2022/03/06 12:47:44;;;;;;;9.52;2.25;;;6.70;72.90;;;;;;5137392;27;20047;-78
2022/03/06 12:50:12;;;;;;;5.32;2.22;;;6.70;72.50;;;;;;5137107;27;20432;-82
2022/03/06 12:52:39;;;;;;;6.80;2.38;;;6.80;72.40;;;;;;5137157;27;20498;-73
2022/03/06 12:55:14;;;;;;;5.57;2.10;;;6.80;72.00;;;;;;5101795;27;20079;-73
2022/03/06 12:57:46;;;;;;;6.50;2.53;;;6.70;71.50;;;;;;5118983;27;20064;-75
2022/03/06 13:00:23;;;;;;;5.50;2.25;;;6.60;72.00;;;;;;5137172;27;20039;-73